station datetime Air Temperature @ 2 m [°F] Air Temperature @ 8 ft [°F] Precipitation [in] Max Precip Rate [in/hr] Atmospheric Pressure [mbar] Relative Humidity [%] Soil Temperature @ -5 cm [°F] Soil Temperature @ -10 cm [°F] Soil Temperature @ -20 cm [°F] Soil Temperature @ -50 cm [°F] Soil Temperature @ -91 cm [°F] Soil Temperature @ -100 cm [°F] Soil VWC @ -5 cm [%] Soil VWC @ -10 cm [%] Soil VWC @ -20 cm [%] Soil VWC @ -50 cm [%] Soil VWC @ -91 cm [%] Soil VWC @ -100 cm [%] Bulk EC @ -5 cm [mS/cm] Bulk EC @ -10 cm [mS/cm] Bulk EC @ -20 cm [mS/cm] Bulk EC @ -50 cm [mS/cm] Bulk EC @ -91 cm [mS/cm] Bulk EC @ -100 cm [mS/cm] Solar Radiation [W/m²] VPD [mbar] Wind Direction @ 10 m [deg] Wind Direction @ 8 ft [deg] Wind Speed @ 10 m [mi/hr] Wind Speed @ 8 ft [mi/hr] Gust Speed @ 10 m [mi/hr] Gust Speed @ 8 ft [mi/hr] Well EC [mS/cm] Well Water Level [in] Well Water Temperature [°F] Snow Depth [in] Bulk EC @ 70 cm [mS/cm] Bulk EC @ 76 cm [mS/cm] Soil Temperature @ -70 cm [°F] Soil Temperature @ -76 cm [°F] Soil VWC @ -70 cm [%] Soil VWC @ -76 cm [%]
aceabsar 2024-07-21 03:40:00-06:00 54.536 0.0 0.0 863.41 72.42 74.660 74.840 71.060 65.372 60.080 19.70 24.00 26.50 24.40 31.40 0.219 0.345 0.489 0.334 0.643 318.200 2.313 2.496
aceashla 2024-07-21 03:40:00-06:00 60.440 0.0 0.0 908.09 76.92 69.260 78.440 77.180 73.400 67.280 10.60 13.80 16.70 23.40 16.20 0.049 0.098 0.135 0.219 0.127 0.000 0.000 0.000 0.000 0.000
acebento 2024-07-21 03:40:00-06:00 58.946 0.0 0.0 892.59 69.22 72.500 74.300 71.960 65.300 59.000 21.20 22.60 27.00 30.80 42.80 0.155 0.243 0.518 0.687 1.783 0.000 339.700 0.016 0.870 0.000
acebigsa 2024-07-21 03:40:00-06:00 57.794 0.0 0.0 921.63 78.64 73.760 75.650 76.370 70.340 63.860 3.95 10.35 14.60 10.25 23.10 0.022 0.076 0.098 0.074 0.613 0.000 220.100 0.286 0.870 0.000
acebigti 2024-07-21 03:40:00-06:00 59.108 0.0 0.0 873.52 65.48 72.140 77.720 79.880 74.300 4.20 3.60 18.00 15.90 0.000 0.006 0.080 0.030 0.000 274.600 9.254 10.435 0.000
acebilli 2024-07-21 03:40:00-06:00 66.812 0.0 0.0 883.46 47.15 75.020 76.190 76.100 70.430 65.030 9.70 21.10 36.20 33.55 34.40 0.074 0.232 0.854 0.812 0.644 0.000 52.740 4.132 5.217 0.000
acebowma 2024-07-21 03:40:00-06:00 58.100 0.0 0.0 877.29 58.10 74.120 76.820 76.460 71.600 62.960 5.40 11.10 28.80 29.40 31.50 0.010 0.049 0.435 0.783 0.806 0.000 294.300 2.899 4.223 0.093
acebozem 2024-07-21 03:40:00-06:00 60.764 0.0 0.0 859.04 60.11 69.980 70.556 69.980 65.120 59.000 10.50 13.60 15.20 16.40 13.40 0.110 0.150 0.170 0.220 0.200 1.518 94.700 4.320 5.402
acebrady 2024-07-21 03:40:00-06:00 58.100 0.0 0.0 899.55 71.55 75.020 76.820 76.280 69.620 62.060 12.30 25.10 33.10 36.80 31.30 0.040 0.254 0.535 0.632 0.657 0.000 357.700 3.816 4.100 0.370
acebroad 2024-07-21 03:40:00-06:00 66.092 0.0 0.0 883.02 45.28 70.268 71.960 71.672 68.720 62.708 9.20 16.80 20.50 21.60 24.10 0.045 0.130 0.214 0.243 0.366 261.300 1.139 1.872
acebusby 2024-07-21 03:40:00-06:00 58.622 0.0 0.0 895.98 69.95 74.660 77.360 78.980 73.760 67.640 5.40 10.70 15.20 23.10 31.70 0.030 0.075 0.120 0.245 0.443 0.000 156.000 7.321 8.198 0.000
acebynum 2024-07-21 03:40:00-06:00 64.256 0.0 0.0 870.24 52.59 71.780 73.580 75.740 67.460 62.240 6.30 12.10 16.20 13.10 17.60 0.010 0.050 0.085 0.039 0.088 0.000 261.400 5.384 6.583 0.000
acecarte 2024-07-21 03:40:00-06:00 71.744 0.0 0.0 900.53 43.26 74.930 76.370 76.100 68.990 63.050 28.60 22.20 25.90 27.40 21.80 0.084 0.232 0.350 0.414 0.267 0.000 151.400 5.427 5.715 0.000
acechest 2024-07-21 03:40:00-06:00 62.654 0.0 0.0 910.81 61.94 73.760 77.900 79.700 70.520 61.520 1.30 16.10 18.30 23.30 24.70 0.000 0.044 0.152 0.409 0.837 0.000 353.200 5.874 6.460 0.000
acechris 2024-07-21 03:40:00-06:00 68.450 0.0 0.0 895.85 50.64 72.320 77.450 78.350 71.420 66.110 0.00 10.85 12.50 14.65 19.60 0.000 0.085 0.104 0.084 0.132 0.000 238.400 9.972 11.554 0.000
acecoffe 2024-07-21 03:40:00-06:00 58.406 0.0 0.0 894.23 71.81 70.880 70.520 68.360 61.520 56.300 15.90 21.50 24.70 33.90 32.20 0.111 0.159 0.336 0.965 0.421 0.000 249.000 9.386 10.310 0.000
acecoone 2024-07-21 03:35:00-06:00 62.834 0.0 0.0 864.28 48.88 70.520 74.660 73.580 67.460 62.060 4.50 17.80 26.80 24.00 26.60 0.005 0.122 0.380 0.303 0.316 0.000 198.200 4.447 5.217 0.556
acecrowa 2024-07-21 03:40:00-06:00 57.380 0.0 0.0 914.35 75.98 75.488 77.180 76.100 70.880 64.760 11.80 17.60 22.90 27.50 32.70 0.079 0.168 0.348 0.632 0.709 92.100 3.248 4.530 0.647
acedupuy 2024-07-21 03:40:00-06:00 63.086 0.0 0.0 886.78 57.02 73.040 77.000 77.000 70.160 61.700 8.50 15.60 23.90 25.20 16.60 0.013 0.062 0.183 0.415 0.244 0.000 258.300 6.476 8.572 0.000
acefores 2024-07-21 03:40:00-06:00 62.618 0.0 0.0 879.43 64.38 73.400 74.300 70.520 69.800 63.140 12.70 11.20 9.60 8.90 17.70 0.030 0.022 0.010 0.016 0.157 0.000 294.600 8.724 9.317 0.000
aceharlo 2024-07-21 03:40:00-06:00 53.366 0.0 0.0 881.52 90.40 73.040 75.560 77.180 70.340 63.500 3.20 10.40 15.40 6.40 0.70 0.010 0.062 0.108 0.011 0.003 0.000 286.900 4.071 6.087 0.000
acehavre 2024-07-21 03:40:00-06:00 62.960 0.0 0.0 926.74 70.18 75.920 75.380 72.500 66.920 61.268 13.00 18.80 19.90 23.70 29.20 0.007 0.255 0.253 0.373 0.713 147.900 8.500 8.845
acehighw 2024-07-21 03:35:00-06:00 61.790 0.0 0.0 905.61 63.04 73.040 74.840 75.200 68.450 61.880 26.15 32.60 35.30 35.35 40.50 0.331 0.428 0.541 0.661 1.256 0.000 220.800 5.261 6.583 0.000
acehuntl 2024-07-21 03:35:00-06:00 60.530 0.0 0.0 915.32 73.90 82.580 76.640 74.480 68.000 61.520 11.00 18.20 23.10 14.90 30.80 0.016 0.093 0.215 0.112 1.040 0.000 274.100 3.523 4.349 0.000
aceingom 2024-07-21 03:35:00-06:00 76.892 0.0 0.0 910.46 39.12 78.728 80.960 82.148 74.732 66.920 1.60 8.80 13.40 4.90 10.50 0.003 0.070 0.075 0.003 0.024 348.600 0.787 0.875
aceinves 2024-07-21 03:35:00-06:00 62.564 0.0 0.0 914.57 66.56 80.330 81.590 81.230 74.030 67.280 13.05 16.25 14.30 21.00 18.60 0.085 0.112 0.092 0.219 0.240 0.000 3.970 3.284 3.727 0.000
acejudit 2024-07-21 03:35:00-06:00 57.956 0.0 0.0 866.21 64.60 63.410 65.750 66.290 62.420 56.570 6.60 19.90 21.00 25.60 22.45 0.024 0.148 0.145 0.122 0.122 0.000 0.000 0.000 0.000 0.000
acelamed 2024-07-21 03:30:00-06:00 71.474 0.0 0.0 873.79 45.32 71.960 73.220 73.760 68.540 63.140 13.90 20.90 18.60 21.10 34.00 0.055 0.115 0.140 0.188 0.444 0.000 179.900 10.505 11.554 0.159
acelavin 2024-07-21 03:35:00-06:00 56.912 0.0 0.0 894.82 67.17 64.400 70.700 74.840 71.600 66.020 6.10 14.70 11.00 18.20 21.30 0.019 0.105 0.082 0.225 0.789 0.000 272.600 6.621 7.205 0.000
acelodge 2024-07-21 03:35:00-06:00 61.232 0.0 0.0 888.38 63.16 78.440 78.800 73.580 70.700 64.400 21.30 20.80 21.30 22.40 24.20 0.199 0.195 0.291 0.347 0.403 0.000 7.379 1.318 2.237 0.000
aceloman 2024-07-21 03:35:00-06:00 62.456 0.0 0.0 923.04 62.88 75.560 79.970 80.780 74.210 66.560 4.25 17.20 18.45 17.65 22.55 0.022 0.141 0.141 0.167 0.494 0.000 40.690 3.304 4.223 0.000
acelorin 2024-07-21 03:35:00-06:00 63.608 0.0 0.0 920.34 84.50 73.580 75.200 75.920 69.620 62.600 3.00 7.90 14.80 12.00 21.80 0.007 0.039 0.119 0.132 0.405 0.000 20.070 5.425 5.964 0.000
acematad 2024-07-21 03:35:00-06:00 64.076 0.0 0.0 913.90 71.08 74.840 75.740 76.640 70.340 65.120 6.50 5.40 8.80 6.60 37.80 0.003 0.002 0.005 0.004 0.905 0.000 247.600 4.689 6.087 0.000
acemelvi 2024-07-21 03:35:00-06:00 59.648 0.0 0.0 864.98 58.96 76.100 77.720 77.180 69.620 64.292 14.70 18.40 20.70 10.80 14.90 0.072 0.178 0.212 0.030 0.048 16.270 5.968 6.592
acemidwa 2024-07-21 03:35:00-06:00 58.316 0.0 0.0 892.24 64.88 65.120 68.360 71.420 62.240 59.900 10.60 12.10 21.80 26.00 39.90 0.017 0.029 0.175 0.276 1.448 279.700 2.262 2.485
acemiles 2024-07-21 03:35:00-06:00 69.692 0.0 0.0 926.78 52.74 82.148 82.760 81.428 74.408 66.920 19.10 20.10 18.80 19.50 18.20 0.194 0.297 0.299 0.279 0.344 42.090 1.376 3.170 0.123
acemocca 2024-07-21 03:35:00-06:00 56.480 0.0 0.0 878.62 76.96 71.420 73.688 72.860 65.120 58.748 18.70 19.50 20.50 21.20 8.80 0.063 0.087 0.202 0.122 0.021 259.100 8.324 8.820 0.292
acemolts 2024-07-21 03:35:00-06:00 55.526 0.0 0.0 887.66 82.90 70.160 75.020 76.820 71.600 65.120 16.20 20.50 22.60 41.90 28.70 0.087 0.144 0.419 2.058 0.941 0.000 319.500 0.174 1.241 0.000
acemosbs 2024-07-21 03:35:00-06:00 61.880 0.0 0.0 921.86 79.25 76.640 79.700 80.600 75.920 68.720 15.60 21.20 22.40 19.70 34.20 0.066 0.235 0.240 0.335 1.503 0.000 240.500 3.461 5.590 0.000
acemosnw 2024-07-21 03:35:00-06:00 61.880 0.0 0.0 914.57 67.04 79.880 82.040 82.580 76.100 67.460 5.80 16.30 19.60 24.30 23.60 0.019 0.107 0.189 0.290 0.485 0.000 285.300 8.657 9.069 0.000
acemusse 2024-07-21 03:35:00-06:00 63.500 0.0 0.0 910.17 62.82 78.440 80.240 82.220 77.180 71.060 0.60 7.50 7.10 9.00 12.40 0.002 0.057 0.068 0.074 0.103 0.000 224.400 6.098 8.572 0.000
aceoilmo 2024-07-21 03:35:00-06:00 64.562 0.0 0.0 899.89 60.12 78.980 70.700 77.900 68.900 62.060 7.40 13.60 15.90 22.00 36.10 0.032 0.080 0.191 0.391 2.283 337.700 2.810 4.100 0.000
aceotter 2024-07-21 03:35:00-06:00 63.176 0.0 0.0 884.01 64.49 72.320 74.840 75.200 69.980 63.320 4.50 13.30 23.00 25.10 33.90 0.007 0.057 0.175 0.343 0.656 0.000 37.400 1.244 2.485 0.000
acerothi 2024-07-21 03:35:00-06:00 59.234 0.0 0.0 871.52 64.29 67.640 71.420 71.240 64.220 61.700 8.10 6.60 12.30 5.60 16.80 0.011 0.023 0.050 0.009 0.120 0.000 357.600 5.331 6.709 0.007
aceround 2024-07-21 03:35:00-06:00 61.628 0.0 0.0 904.15 73.66 73.400 76.640 78.080 73.580 66.560 15.30 17.20 15.80 22.10 28.60 0.073 0.099 0.088 0.505 1.508 294.000 1.713 2.360
aceroyeg 2024-07-21 03:35:00-06:00 63.572 0.0 0.0 912.75 70.74 77.360 78.620 73.400 69.980 61.700 4.60 17.70 21.50 20.50 28.60 0.012 0.083 0.139 0.340 0.676 0.000 234.800 5.140 6.087 0.000
aceryega 2024-07-21 03:35:00-06:00 61.520 0.0 0.0 875.28 60.26 72.860 75.740 77.360 73.400 65.300 4.70 7.00 7.50 17.20 21.80 0.005 0.029 0.029 0.097 0.177 0.000 306.300 9.749 10.062 0.000
acesacos 2024-07-21 03:35:00-06:00 67.154 0.0 0.0 924.59 72.23 77.000 78.620 78.800 72.320 79.160 11.60 21.00 29.20 37.70 45.40 0.044 0.202 0.680 1.623 1.814 0.000 354.400 4.722 6.460 0.139
acesands 2024-07-21 03:35:00-06:00 65.282 0.0 0.0 913.32 62.78 75.740 78.980 79.700 74.300 61.340 9.00 16.80 21.80 24.50 38.30 0.028 0.086 0.242 0.828 2.244 0.000 308.800 3.264 5.838 0.050
acescobe 2024-07-21 03:35:00-06:00 65.642 0.0 0.0 931.56 79.21 71.240 74.840 77.720 72.500 62.960 6.20 8.50 8.60 13.70 22.40 0.018 0.049 0.047 0.092 0.434 0.000 346.600 7.145 8.198 0.000
acesidne 2024-07-21 03:35:00-06:00 64.670 0.0 0.0 940.55 71.50 77.720 79.520 79.160 71.060 65.300 13.20 16.00 15.60 12.50 10.80 0.061 0.112 0.115 0.097 0.076 0.000 15.030 6.313 6.957 2.971
acesprin 2024-07-21 03:35:00-06:00 57.866 0.0 0.0 809.94 59.35 77.000 79.520 78.620 70.970 64.130 15.40 29.15 29.45 29.65 31.35 0.039 0.442 0.496 0.574 0.752 0.000 185.300 6.237 8.820
acesunbu 2024-07-21 03:35:00-06:00 70.826 0.0 0.0 892.55 47.65 67.100 72.680 71.960 68.720 62.240 0.20 11.40 12.60 13.70 23.90 0.002 0.053 0.056 0.087 0.274 0.000 134.300 2.105 3.353 0.000
acesunri 2024-07-21 03:35:00-06:00 62.906 0.0 0.0 896.13 53.93 80.960 81.320 81.860 73.580 65.120 6.80 16.60 21.80 21.70 9.60 0.006 0.043 0.128 0.164 0.020 0.000 243.500 3.405 5.217 0.020
acetosto 2024-07-21 03:35:00-06:00 53.438 0.0 0.0 885.52 75.05 72.140 73.760 75.020 66.020 76.280 13.70 24.00 37.10 51.80 23.00 0.066 0.716 1.690 3.569 0.944 0.000 237.200 7.695 9.069 0.000
aceturne 2024-07-21 03:35:00-06:00 60.530 0.0 0.0 913.04 87.40 68.720 71.240 71.420 66.200 59.720 2.10 9.40 14.60 11.00 21.70 0.002 0.041 0.093 0.096 0.255 0.000 353.300 7.201 7.453 0.000
acetwodo 2024-07-21 03:35:00-06:00 52.394 0.0 0.0 864.80 84.30 65.840 68.540 87.080 65.660 57.560 1.40 11.40 20.20 15.90 10.10 0.000 0.038 0.158 0.106 0.065 0.000 258.500 5.306 6.335 0.000
acevalen 2024-07-21 03:35:00-06:00 68.396 0.0 0.0 920.43 57.44 79.340 73.040 81.320 80.600 78.080 10.90 21.70 20.10 22.60 26.70 0.026 0.188 0.110 0.179 0.809 0.000 301.800 8.142 9.069 0.233
acewarho 2024-07-21 03:35:00-06:00 62.780 0.0 0.0 912.16 63.25 73.040 78.080 80.420 76.280 76.100 8.00 11.60 23.20 31.80 29.60 0.032 0.061 0.231 0.813 0.637 0.000 272.300 11.050 12.422 0.100
acewinne 2024-07-21 03:35:00-06:00 64.364 0.0 0.0 909.14 60.21 75.380 78.440 78.440 72.140 50.000 10.40 21.60 20.80 23.40 34.20 0.039 0.226 0.287 0.408 1.001 0.000 301.100 9.802 10.932 0.000
arskeogh 2024-07-21 03:15:00-06:00 70.34 0.0 0.0 927.70 56.70 83.840 81.140 17.70 20.50 0.058 0.424 0.000 11.0 170.0 1.029 1.700
arskeose 2024-07-21 03:15:00-06:00 63.68 0.0 0.0 936.30 65.50 84.920 87.260 78.980 71.24 20.80 20.00 17.50 17.6 0.210 0.136 0.175 0.225 0.000 7.0 254.0 4.742 5.861
arskeosw 2024-07-21 03:15:00-06:00 71.24 0.0 0.0 924.60 52.50 82.400 84.920 77.180 69.98 22.00 14.20 18.50 16.5 0.099 0.075 0.092 0.108 0.000 12.4 166.0 3.892 4.765
bentlake 2024-07-21 03:00:00-06:00 60.08 0.0 0.0 896.60 68.30 68.900 69.440 63.500 59.00 15.20 18.90 23.80 39.7 0.151 0.077 0.762 1.462 0.000 5.6 356.0 0.626 1.432
blm1arge 2024-07-21 03:15:00-06:00 61.70 0.0 0.0 819.90 42.10 77.180 78.800 71.420 62.42 16.20 21.40 17.40 24.2 0.023 0.075 0.188 0.412 0.000 10.9 316.0 6.957 8.791
blm2virg 2024-07-21 03:00:00-06:00 58.28 0.0 0.0 786.30 47.60 63.680 63.680 57.200 52.34 18.00 24.10 21.20 22.6 0.018 0.076 0.046 0.077 0.000 8.7 73.0 3.176 5.346
blm3mcca 2024-07-21 03:15:00-06:00 65.66 0.0 0.0 824.30 39.30 71.060 74.660 70.340 63.32 12.80 9.20 12.70 20.2 0.001 0.050 0.027 0.060 0.000 13.0 218.0 2.103 3.669
blm5kidd 2024-07-21 03:30:00-06:00 60.80 0.0 0.0 819.70 41.90 68.720 73.940 68.180 63.68 10.00 16.70 12.50 11.5 0.002 0.007 0.009 0.122 0.000 10.6 44.0 2.953 6.084
blmangel 2024-07-21 03:30:00-06:00 70.88 0.0 0.0 914.00 59.50 79.700 80.960 74.300 67.82 13.20 14.30 13.80 17.8 0.112 0.108 0.141 0.465 0.000 10.4 106.0 3.109 4.541
blmbattl 2024-07-21 03:00:00-06:00 63.32 0.0 0.0 911.40 83.60 71.780 71.060 65.840 60.62 28.60 32.10 23.50 42.8 0.352 0.728 0.759 1.560 0.000 3.3 322.0 4.563 5.369
blmbelfr 2024-07-21 03:15:00-06:00 63.14 0.0 0.0 889.30 70.60 72.320 77.000 73.040 66.56 9.00 14.70 13.20 9.6 0.033 0.112 0.263 0.402 0.000 5.8 128.0 5.391 8.545
blmbroad 2024-07-21 03:00:00-06:00 70.34 0.0 0.0 912.80 61.10 81.860 84.740 78.440 71.60 11.00 12.60 26.40 22.5 0.026 0.091 0.861 0.678 0.000 9.9 158.0 1.454 1.834
blmcapit 2024-07-21 03:30:00-06:00 63.50 0.0 0.0 907.80 77.10 76.820 78.980 71.600 64.76 14.80 19.10 49.30 44.3 0.001 0.155 2.113 2.118 0.000 4.6 30.0 3.109 3.691
blmcuste 2024-07-21 03:00:00-06:00 63.50 0.0 0.0 919.80 72.10 82.040 82.580 76.460 70.70 14.40 12.50 14.80 23.7 0.105 0.121 0.140 1.005 0.000 5.6 283.0 3.378 4.742
blmfortp 2024-07-21 03:30:00-06:00 73.58 0.0 0.0 929.90 60.30 80.960 80.240 74.660 68.18 9.50 10.20 9.10 12.5 0.041 0.042 0.207 1.592 0.000 11.2 158.0 6.241 8.545
blmglend 2024-07-21 03:15:00-06:00 66.02 0.0 0.0 940.00 73.80 75.740 77.900 70.700 67.28 11.10 11.40 15.70 24.2 0.019 0.021 0.041 0.076 0.000 5.7 150.0 1.834 2.572
blmglnor 2024-07-21 03:00:00-06:00 70.70 0.0 0.0 930.80 56.70 82.220 80.780 71.420 65.84 21.60 20.60 25.80 31.7 0.124 0.136 1.042 0.971 0.000 11.1 89.0 9.216 12.997
blmglsou 2024-07-21 02:00:00-06:00 65.84 0.0 0.0 936.50 74.20 75.380 74.840 68.900 63.32 17.40 18.10 23.90 20.8 0.211 0.286 0.362 0.495 0.000 5.6 97.0 1.566 4.026
blmhardi 2024-07-21 03:00:00-06:00 65.66 0.0 0.0 911.50 73.20 73.040 73.580 67.280 62.96 27.10 19.30 33.40 32.5 0.557 0.652 0.547 0.256 0.000 5.8 9.0 3.244 4.317
blmhavre 2024-07-21 03:15:00-06:00 71.24 0.0 0.0 917.50 68.60 74.660 75.920 70.160 64.04 10.10 20.20 22.90 34.1 0.029 0.385 0.685 0.000 8.2 71.0 6.957 9.686
blmjorda 2024-07-21 03:00:00-06:00 66.74 0.0 0.0 934.80 76.30 84.200 85.100 78.260 70.70 9.60 9.20 10.00 9.8 0.107 0.071 0.092 0.052 0.000 5.3 27.0 2.103 3.400
blmmatad 2024-07-21 03:15:00-06:00 72.68 0.0 0.0 915.40 55.20 78.980 79.880 73.400 67.28 15.30 10.70 21.10 27.2 0.017 0.006 0.506 0.959 0.000 12.3 308.0 5.190 7.113
blmplevn 2024-07-21 03:30:00-06:00 67.46 0.0 0.0 917.20 69.50 79.340 80.240 72.320 65.12 17.30 16.50 15.50 21.0 0.120 0.162 0.150 0.855 0.000 7.0 163.0 3.624 4.429
blmpumpk 2024-07-21 02:45:00-06:00 69.44 0.0 0.0 926.70 51.90 76.280 77.000 71.060 66.02 9.70 9.10 10.60 13.6 0.040 0.060 0.130 0.175 0.000 11.8 129.0 1.454 2.617
blmround 2024-07-21 03:30:00-06:00 58.10 0.0 0.0 897.60 70.80 74.480 75.920 69.440 63.14 21.40 28.20 37.30 31.3 0.260 0.782 1.841 0.000 4.8 355.0 3.892 5.190
blmroyno 2024-07-21 03:15:00-06:00 67.46 0.0 0.0 915.90 55.20 83.300 83.660 76.100 69.80 22.60 24.30 22.60 31.6 0.135 0.284 0.948 1.340 0.000 10.3 258.0 2.729 5.123
blmrubyc 2024-07-21 03:15:00-06:00 63.14 0.0 0.0 864.70 47.40 72.320 77.900 75.200 71.42 12.80 9.30 9.30 13.4 0.041 0.007 0.008 0.050 0.000 10.4 141.0 2.684 4.340
blmstmbt 2024-07-21 03:30:00-06:00 68.36 0.0 0.0 900.20 50.40 72.140 79.160 76.100 69.08 11.10 11.10 12.00 17.3 0.036 0.024 0.157 0.238 0.000 11.8 342.0 2.036 5.995
blmterry 2024-07-21 03:15:00-06:00 63.68 0.0 0.0 939.60 79.80 74.660 79.340 75.920 69.80 17.30 22.60 38.6 0.038 0.199 0.103 1.132 0.000 4.1 321.0 3.020 4.407
blmwarre 2024-07-21 03:30:00-06:00 61.34 0.0 0.0 849.20 55.40 73.400 77.360 73.040 65.30 5.50 8.30 7.00 14.2 0.000 0.024 0.007 0.505 0.000 8.2 1.0 5.592 7.628
bozmtest 2024-07-21 03:30:00-06:00 58.64 0.0 0.0 860.10 51.70 69.440 69.800 69.260 64.220 59.000 14.50 15.10 13.00 17.30 15.40 0.068 0.087 0.102 0.239 0.214 0.000 8.1 73.0 1.857 3.892
conradmt 2024-07-21 03:00:00-06:00 67.46 0.0 0.0 895.90 59.40 75.560 67.460 62.60 28.70 32.80 31.5 0.285 0.351 0.430 0.000 9.3 225.0 1.432 2.416
corvalli 2024-07-21 03:15:00-06:00 62.78 0.0 0.0 898.80 60.40 77.900 77.720 69.980 63.68 15.90 13.20 14.40 15.0 0.012 0.028 0.011 0.017 0.000 7.7 129.0 2.259 5.100
crowagen 2024-07-21 02:15:00-06:00 61.16 0.0 0.0 915.30 65.60 82.400 81.860 75.200 69.26 22.30 31.10 25.60 25.7 0.056 0.425 0.386 0.434 0.000 6.3 255.0 2.147 2.886
csktbira 2024-07-21 03:35:00-06:00 62.438 0.0 0.0 926.84 71.60 71.780 82.220 83.840 78.800 70.700 1.30 6.90 26.20 16.70 1.80 0.001 0.018 0.331 0.118 0.000 0.000 24.900 2.156 5.342 0.000
ebarllob 2024-07-21 03:00:00-06:00 60.44 0.0 0.0 890.60 51.90 76.640 75.560 66.380 61.70 15.80 9.50 7.90 7.5 0.003 0.010 0.009 0.029 0.000 8.6 73.0 5.033 7.919
ekalakas 2024-07-21 03:30:00-06:00 60.62 0.0 0.0 911.10 82.30 79.340 79.880 75.020 78.08 25.90 22.20 43.90 3.6 0.104 0.493 0.001 0.000 3.2 168.0 2.282 3.825
ftbentcb 2024-07-21 03:00:00-06:00 65.30 0.0 0.0 910.80 63.80 67.640 65.480 62.420 60.44 25.00 18.10 16.90 21.4 0.316 0.260 0.216 0.107 0.000 7.7 151.0 5.391 8.031
havrenmt 2024-07-21 03:15:00-06:00 62.78 0.0 0.0 927.50 77.70 77.180 78.620 70.340 63.32 20.90 22.70 24.00 29.7 0.075 0.156 0.231 0.448 0.000 4.4 129.0 4.384 7.538
kalispel 2024-07-21 03:30:00-06:00 62.96 0.0 0.0 919.40 77.00 73.220 71.960 66.920 61.34 18.00 32.50 24.50 26.3 0.041 0.125 0.102 0.067 0.000 4.5 224.0 1.432 3.512
lololowr 2024-07-21 03:30:00-06:00 57.74 0.0 0.0 908.70 57.90 74.660 80.060 72.860 64.40 10.00 9.40 8.50 7.9 0.008 0.003 0.006 0.003 0.000 6.8 130.0 1.633 3.713
lomawood 2024-07-21 02:00:00-06:00 67.28 0.0 0.0 925.80 65.90 73.220 70.880 64.940 60.26 8.60 13.50 12.50 11.0 0.049 0.124 0.105 0.117 0.000 7.7 258.0 0.805 1.611
lubrecht 2024-07-21 03:00:00-06:00 55.22 0.0 0.0 885.10 63.60 69.800 69.800 62.060 56.12 12.70 14.90 27.00 18.7 0.010 0.024 0.185 0.188 0.000 5.4 331.0 1.499 2.975
mbmgtech 2024-07-21 03:15:00-06:00 65.30 0.0 0.0 832.20 45.10 76.460 77.000 72.860 14.10 15.60 16.90 0.042 0.061 0.124 0.000 11.7 69.0 1.342 2.863
mcolubre 2024-07-21 03:35:00-06:00 53.690 0.0 0.0 880.10 67.10 65.120 66.740 62.780 56.120 52.340 9.30 14.10 20.00 34.80 39.80 0.020 0.044 0.069 0.169 0.449 0.000 0.000 0.000 0.000 0.000
mdabench 2024-07-21 03:15:00-06:00 55.40 0.0 0.0 879.50 89.20 59.540 58.640 55.760 54.14 18.40 18.80 21.30 27.2 0.104 0.075 0.121 0.198 0.000 1.6 247.0 3.154 4.519 0.885 147.874 45.86
mdabigsa 2024-07-21 03:15:00-06:00 62.06 0.0 0.0 921.70 69.00 72.680 72.680 66.200 61.34 8.20 13.30 13.60 35.0 0.014 0.149 0.191 1.578 0.000 5.9 6.0 3.579 5.906 6.457 335.630 47.66
mdabilli 2024-07-21 03:15:00-06:00 69.44 0.0 0.0 908.90 51.80 68.900 68.900 66.200 62.60 12.90 13.70 18.10 18.2 0.047 0.180 0.315 0.244 0.000 11.9 274.0 5.615 13.422 1.005 255.945 55.40
mdacasca 2024-07-21 02:15:00-06:00 58.82 0.0 0.0 905.00 70.30 69.080 68.180 62.960 58.82 12.60 13.70 17.20 14.4 0.094 0.200 0.146 0.225 0.000 5.0 314.0 1.790 3.758 4.624 45.000 48.92
mdacharl 2024-07-20 19:30:00-06:00 92.12 0.0 0.0 893.70 29.10 84.020 76.640 68.720 63.68 9.20 6.80 5.70 11.0 0.000 0.004 0.000 0.010 186.300 36.6 326.0 1.409 2.819 0.094 39.055 52.16
mdachine 2024-07-21 03:15:00-06:00 62.78 0.0 0.0 939.20 81.20 77.540 76.640 68.360 59.90 15.10 16.80 20.30 27.5 0.111 0.225 0.360 2.265 0.000 3.7 273.0 2.640 6.129 4.093 149.606 46.22
mdachote 2024-07-21 03:00:00-06:00 51.44 0.0 0.0 893.40 92.50 67.640 66.560 61.520 58.10 13.70 15.90 15.90 16.5 0.058 0.054 0.038 0.038 0.000 1.0 316.0 3.132 5.659 0.000 161.102 49.28
mdadagma 2024-07-21 03:15:00-06:00 59.90 0.0 0.0 946.20 97.30 67.640 65.840 61.520 56.66 15.20 16.20 14.70 22.3 0.045 0.068 0.121 0.303 0.000 0.5 358.0 2.572 3.534 2.716 107.126 43.88
mdadillo 2024-07-21 03:30:00-06:00 50.36 0.0 0.0 854.70 90.30 68.360 67.280 60.440 55.76 20.60 27.60 44.50 39.6 0.038 0.574 1.832 1.057 0.000 1.2 188.0 4.496 6.532 1.274 160.472 45.50
mdaedgar 2024-07-21 03:00:00-06:00 64.76 0.0 0.0 904.40 67.90 68.360 68.000 64.940 61.88 16.30 13.90 10.10 15.7 0.029 0.051 0.015 0.124 0.000 6.7 2.0 1.969 3.467 0.000 51.98
mdafroid 2024-07-21 03:15:00-06:00 60.98 0.0 0.0 947.70 94.10 70.160 69.800 66.380 60.62 15.70 17.80 17.90 21.9 0.157 0.264 0.242 0.387 0.000 1.1 213.0 1.834 4.094 0.003 99.803 45.86
mdagildf 2024-07-21 03:15:00-06:00 60.62 0.0 0.0 924.50 79.60 68.900 69.260 63.140 57.56 12.20 12.40 11.00 18.8 0.052 0.062 0.073 0.287 0.000 3.7 328.0 1.901 2.774 85.709 45.86
mdaglasw 2024-07-21 03:00:00-06:00 62.42 0.0 0.0 946.50 82.90 69.080 66.200 60.440 55.76 21.20 29.10 33.40 56.3 0.232 0.832 0.000 3.3 39.0 1.096 2.416 16.982 45.32
mdahardi 2024-07-21 03:00:00-06:00 58.46 0.0 0.0 923.90 90.70 73.580 74.300 69.440 64.94 16.00 18.30 13.40 11.3 0.185 0.259 0.264 0.151 0.000 1.6 272.0 2.640 4.183 1.452 81.732 50.72
mdahogel 2024-07-20 15:30:00-06:00 85.820 75.920 69.260 62.42 15.80 13.90 13.40 16.2 0.043 0.060 0.104 0.321 0.793 36.260 46.04
mdaledge 2024-07-21 03:00:00-06:00 69.08 0.0 0.0 903.60 52.40 83.120 84.920 74.840 66.56 11.30 15.70 14.40 27.8 0.052 0.130 0.182 1.791 0.000 11.6 251.0 2.930 4.250 17.579 165.197 48.02
mdamalta 2024-07-21 03:15:00-06:00 61.34 0.0 0.0 942.90 88.50 73.580 73.040 66.740 60.44 14.60 21.30 48.10 52.6 0.288 0.881 0.000 2.1 252.0 3.780 5.123 13.804 146.693 46.40
mdamanha 2024-07-21 03:15:00-06:00 53.60 0.0 0.0 876.10 91.10 66.920 62.060 57.20 19.30 10.10 32.0 0.152 0.040 0.490 0.000 1.3 154.0 1.521 2.707 0.400 118.819 48.38
mdamiles 2024-07-21 03:00:00-06:00 0.00 69.440 64.580 60.62 16.20 16.00 28.0 0.247 0.359 1.618 48.92
mdamoies 2024-07-21 03:00:00-06:00 64.58 0.0 0.0 922.70 68.80 79.340 78.980 70.880 65.48 10.90 10.70 13.40 22.4 0.037 0.042 0.108 0.087 0.000 6.5 244.0 12.862 16.509 1.535 203.189 51.26
mdaoilmo 2024-07-21 03:00:00-06:00 66.02 0.0 0.0 900.40 60.20 74.300 75.200 67.100 61.52 11.50 20.30 13.40 23.2 0.008 0.103 0.096 0.843 0.000 8.7 75.0 5.234 6.711 0.086 0.000 45.50
mdapower 2024-07-21 03:30:00-06:00 53.78 0.0 0.0 895.60 71.00 73.940 76.100 68.360 62.06 14.40 18.00 18.90 24.3 0.013 0.033 0.210 0.058 0.000 4.1 180.0 0.291 0.582 0.532 135.394 48.20
mdaronan 2024-07-21 03:15:00-06:00 66.02 0.0 0.0 914.20 61.00 74.300 74.120 68.180 62.78 10.80 11.60 13.50 32.2 0.009 0.008 0.007 0.178 0.000 8.5 44.0 1.432 2.751 0.624 149.213 49.64
mdascoby 2024-07-21 03:15:00-06:00 60.80 0.0 0.0 939.10 90.30 67.460 67.460 62.420 57.02 9.60 8.20 14.70 14.8 0.033 0.056 0.141 0.192 0.000 1.8 93.0 3.601 5.906
mdatost2 2024-07-21 03:15:00-06:00 51.26 0.0 0.0 886.10 80.60 63.860 71.420 65.660 60.26 3.10 17.10 12.30 11.0 0.000 0.175 0.224 0.195 0.000 2.5 208.0 2.125 5.682 1.064 19.685 47.48
mdatwinb 2024-07-21 03:00:00-06:00 61.52 0.0 0.0 863.80 63.60 82.580 79.880 72.680 65.84 8.50 10.00 8.60 11.5 0.014 0.021 0.040 0.113 0.000 6.8 154.0 3.244 5.436 0.902 174.685 51.44
moccasin 2024-07-21 02:30:00-06:00 58.46 0.0 0.0 879.10 78.60 74.120 72.320 65.480 59.00 26.10 29.70 26.70 19.9 0.091 0.217 0.111 0.035 0.000 3.6 235.0 5.861 11.699
moltwest 2024-07-21 03:00:00-06:00 64.76 0.0 0.0 881.00 60.50 71.240 76.100 73.220 22.30 17.40 22.20 0.216 0.192 0.199 0.000 8.3 171.0 5.525 12.527
namlower 2024-07-21 03:15:00-06:00 72.50 0.0 0.0 904.10 30.40 76.820 74.660 67.820 7.50 12.00 16.90 0.017 0.091 0.322 0.000 19.0 341.0 5.346 6.912
namupper 2024-07-21 02:00:00-06:00 75.56 0.0 0.0 854.70 25.50 70.880 68.000 58.820 8.80 8.30 9.30 0.007 0.009 0.013 0.000 22.6 164.0 9.373 14.630 0.061 53.78 15.7
nctbirne 2024-07-21 03:00:00-06:00 69.62 0.0 0.0 880.20 54.90 77.720 78.800 70.880 67.46 16.50 16.20 12.60 16.3 0.150 0.135 0.049 0.061 0.000 11.1 63.0 0.470 1.118
nctbusby 2024-07-21 03:00:00-06:00 71.78 0.0 0.0 886.80 50.00 80.240 80.600 72.860 68.00 10.00 9.80 14.10 20.5 0.075 0.061 0.108 0.086 0.000 13.3 168.0 2.483 3.244
pvbrisbi 2024-07-21 03:15:00-06:00 51.26 0.0 0.0 866.80 89.40 71.420 71.960 64.580 59.54 21.50 22.80 20.90 16.3 0.195 0.222 0.234 0.181 0.000 1.4 209.0 2.147 3.534 0.372 131.063 48.20
pvcarbel 2024-07-21 03:00:00-06:00 59.72 0.0 0.0 832.20 56.20 78.620 78.800 71.240 13.70 13.20 11.10 0.046 0.023 0.019 0.000 7.7 277.0 3.557 5.771 0.027 66.2 11.6
pvemigra 2024-07-21 03:00:00-06:00 60.98 0.0 0.0 847.20 56.00 77.360 79.160 70.520 10.30 10.80 10.90 0.007 0.015 0.014 0.000 8.0 147.0 4.630 6.599
raplejen 2024-07-21 03:00:00-06:00 59.18 0.0 0.0 882.10 66.70 76.640 78.080 71.420 65.84 17.60 20.00 17.70 12.5 0.062 0.167 0.075 0.049 0.000 5.7 60.0 4.317 7.874
reedpoin 2024-07-21 02:30:00-06:00 57.20 0.0 0.0 879.90 75.50 69.620 76.640 72.140 67.46 13.90 20.20 22.30 21.2 0.038 0.146 0.237 0.603 0.000 3.9 3.0 5.615 8.321
sevnoner 2024-07-21 03:15:00-06:00 73.58 0.0 0.0 914.80 46.90 81.860 84.200 78.080 72.50 15.80 19.20 11.80 14.7 0.020 0.134 0.052 0.036 0.000 15.0 0.0 3.646 4.899
turekran 2024-07-21 03:15:00-06:00 59.72 0.0 0.0 895.80 69.30 67.460 68.000 64.040 59.54 22.70 45.90 38.70 33.5 0.196 0.991 0.752 0.433 0.000 5.4 248.0 5.302 7.561
unmpryor 2024-07-20 07:15:00-06:00 61.70 0.0 0.0 881.30 73.40 143.600 5.0 273.0 2.147 3.467
unmwyola 2024-07-21 03:00:00-06:00 59.36 0.0 0.0 895.00 70.80 0.000 5.0 7.0 1.476 2.326
usfsmacp 2024-07-21 03:00:00-06:00 61.88 0.0 0.0 816.50 57.90 63.680 68.000 62.960 5.90 13.10 13.70 0.003 0.012 0.025 0.000 7.9 301.0 2.326 3.333
whitshaw 2024-07-21 03:15:00-06:00 54.50 0.0 0.0 916.70 90.10 60.980 57.380 51.440 47.84 53.50 64.70 80.80 85.2 0.213 0.319 0.307 0.266 0.000 1.4 321.0 1.924 3.065
wsrabsaw 2024-07-21 03:00:00-06:00 58.28 0.0 0.0 868.80 67.90 79.160 79.340 71.600 63.68 19.70 20.60 13.10 13.9 0.071 0.211 0.142 0.103 0.000 5.3 267.0 5.861 8.008
wsrbigtm 2024-07-21 02:15:00-06:00 62.96 0.0 0.0 875.40 68.70 80.600 81.500 75.920 19.30 14.20 22.60 0.066 0.012 0.264 0.000 6.2 273.0 5.346 8.008
wsrboydw 2024-07-21 02:00:00-06:00 64.22 0.0 0.0 866.40 56.50 68.360 67.640 63.320 58.82 21.70 19.30 26.90 33.6 0.045 0.152 0.479 0.130 0.000 8.9 179.0 5.033 7.471
wsrmelvi 2024-07-21 03:15:00-06:00 59.36 0.0 0.0 864.70 65.60 78.080 79.160 70.880 63.86 17.00 19.20 16.80 20.0 0.077 0.141 0.109 0.146 0.000 6.0 18.0 5.548 8.478
wsrreeds 2024-07-21 03:30:00-06:00 58.82 0.0 0.0 865.90 65.60 74.480 78.260 70.340 64.04 12.20 14.20 13.90 18.7 0.028 0.056 0.062 0.133 0.000 5.8 248.0 5.771 7.628